createdAt,value
2022-10-28T00:01:12.463Z,3.40
2022-10-28T00:03:46.142Z,4.00
2022-10-28T00:06:34.509Z,2.73
2022-10-28T00:09:02.303Z,8.03
2022-10-28T00:11:32.496Z,2.70
2022-10-28T00:14:01.179Z,3.03
2022-10-28T00:16:30.440Z,4.23
2022-10-28T00:18:59.267Z,3.17
2022-10-28T00:21:30.463Z,4.53
2022-10-28T00:23:57.732Z,2.50
2022-10-28T00:26:27.804Z,2.47
2022-10-28T00:29:00.115Z,6.93
2022-10-28T00:31:28.487Z,3.07
2022-10-28T00:33:55.775Z,3.70
2022-10-28T00:36:32.159Z,3.10
2022-10-28T00:38:59.916Z,2.63
2022-10-28T00:41:36.808Z,2.60
2022-10-28T00:44:41.120Z,3.97
2022-10-28T00:47:21.449Z,1.97
2022-10-28T00:49:51.206Z,2.60
2022-10-28T00:52:22.767Z,3.57
2022-10-28T00:54:51.781Z,4.80
2022-10-28T00:57:24.367Z,6.20
2022-10-28T00:59:53.242Z,4.10
2022-10-28T01:02:20.694Z,3.10
2022-10-28T01:04:47.837Z,4.07
2022-10-28T01:07:17.109Z,3.37
2022-10-28T01:09:44.602Z,2.80
2022-10-28T01:12:33.395Z,2.50
2022-10-28T01:15:18.710Z,3.63
2022-10-28T01:18:35.575Z,1.83
2022-10-28T01:22:03.340Z,2.87
2022-10-28T01:25:05.406Z,5.70
2022-10-28T01:27:55.290Z,2.80
2022-10-28T01:30:29.201Z,2.30
2022-10-28T01:33:19.579Z,3.27
2022-10-28T01:35:55.549Z,2.00
2022-10-28T01:38:30.791Z,2.47
2022-10-28T01:41:09.595Z,4.73
2022-10-28T01:43:51.920Z,5.37
2022-10-28T01:46:48.153Z,2.80
2022-10-28T01:49:35.171Z,2.50
2022-10-28T01:52:05.696Z,2.50
2022-10-28T01:54:35.305Z,2.30
2022-10-28T01:57:05.629Z,2.30
2022-10-28T01:59:36.674Z,2.87
2022-10-28T02:02:04.222Z,3.00
2022-10-28T02:04:31.692Z,4.23
2022-10-28T02:07:03.140Z,1.90
2022-10-28T02:09:47.982Z,2.90
2022-10-28T02:12:36.045Z,2.70
2022-10-28T02:15:45.387Z,1.93
2022-10-28T02:18:40.696Z,3.50
2022-10-28T02:21:29.179Z,4.67
2022-10-28T02:24:11.555Z,2.40
2022-10-28T02:26:47.405Z,2.67
2022-10-28T02:29:23.056Z,4.80
2022-10-28T02:31:59.041Z,2.27
2022-10-28T02:34:32.095Z,1.70
2022-10-28T02:37:03.861Z,1.87
2022-10-28T02:39:37.544Z,2.10
2022-10-28T02:42:11.066Z,2.20
2022-10-28T02:44:50.300Z,8.30
2022-10-28T02:47:23.800Z,2.30
2022-10-28T02:49:58.729Z,3.60
2022-10-28T02:52:30.387Z,2.77
2022-10-28T02:55:00.800Z,2.73
2022-10-28T02:57:42.098Z,2.30
2022-10-28T03:00:15.080Z,2.80
2022-10-28T03:02:42.846Z,1.93
2022-10-28T03:05:10.714Z,3.60
2022-10-28T03:07:38.468Z,1.70
2022-10-28T03:10:09.129Z,3.17
2022-10-28T03:12:36.774Z,2.20
2022-10-28T03:15:04.922Z,2.13
2022-10-28T03:17:32.506Z,1.90
2022-10-28T03:20:00.078Z,2.57
2022-10-28T03:22:27.629Z,3.30
2022-10-28T03:24:55.283Z,4.17
2022-10-28T03:27:28.985Z,3.80
2022-10-28T03:29:56.346Z,4.00
2022-10-28T03:32:25.649Z,2.00
2022-10-28T03:34:53.107Z,1.90
2022-10-28T03:37:23.532Z,3.73
2022-10-28T03:39:50.869Z,1.60
2022-10-28T03:42:18.448Z,2.80
2022-10-28T03:44:45.806Z,1.70
2022-10-28T03:47:13.258Z,4.27
2022-10-28T03:49:40.719Z,3.03
2022-10-28T03:52:10.810Z,9.43
2022-10-28T03:54:38.396Z,3.67
2022-10-28T03:57:05.648Z,3.50
2022-10-28T03:59:33.210Z,3.20
2022-10-28T04:02:08.943Z,1.73
2022-10-28T04:04:37.237Z,3.63
2022-10-28T04:07:04.592Z,2.60
2022-10-28T04:09:32.063Z,11.33
2022-10-28T04:11:59.436Z,1.87
2022-10-28T04:14:27.105Z,1.90
2022-10-28T04:16:54.938Z,4.23
2022-10-28T04:19:24.414Z,2.83
2022-10-28T04:21:52.278Z,3.10
2022-10-28T04:24:20.042Z,2.77
2022-10-28T04:26:47.704Z,1.70
2022-10-28T04:29:15.195Z,2.50
2022-10-28T04:31:42.667Z,2.30
2022-10-28T04:34:10.194Z,2.00
2022-10-28T04:36:37.815Z,2.50
2022-10-28T04:39:05.504Z,2.60
2022-10-28T04:41:35.655Z,4.43
2022-10-28T04:44:03.491Z,3.07
2022-10-28T04:46:33.538Z,2.73
2022-10-28T04:49:05.502Z,2.47
2022-10-28T04:51:34.319Z,2.37
2022-10-28T04:54:02.368Z,3.03
2022-10-28T04:56:32.965Z,3.80
2022-10-28T04:59:00.457Z,2.57
2022-10-28T05:01:30.891Z,2.30
2022-10-28T05:03:58.475Z,2.83
2022-10-28T05:06:26.510Z,4.03
2022-10-28T05:08:54.142Z,3.00
2022-10-28T05:11:24.707Z,4.60
2022-10-28T05:13:55.952Z,1.70
2022-10-28T05:16:25.001Z,2.00
2022-10-28T05:18:55.645Z,2.13
2022-10-28T05:21:23.345Z,3.03
2022-10-28T05:23:51.275Z,2.90
2022-10-28T05:26:18.734Z,2.03
2022-10-28T05:28:50.742Z,3.70
2022-10-28T05:31:18.908Z,3.50
2022-10-28T05:33:47.252Z,1.77
2022-10-28T05:36:15.836Z,2.73
2022-10-28T05:38:45.981Z,3.00
2022-10-28T05:41:14.363Z,4.60
2022-10-28T05:43:42.537Z,2.20
2022-10-28T05:46:13.854Z,3.97
2022-10-28T05:48:41.519Z,2.00
2022-10-28T05:51:09.515Z,3.07
2022-10-28T05:53:42.912Z,2.53
2022-10-28T05:56:11.363Z,6.40
2022-10-28T05:58:42.098Z,3.00
2022-10-28T06:01:10.941Z,2.63
2022-10-28T06:03:38.412Z,6.80
2022-10-28T06:06:12.260Z,7.63
2022-10-28T06:08:46.677Z,4.90
2022-10-28T06:11:13.722Z,4.97
2022-10-28T06:13:41.691Z,5.03
2022-10-28T06:16:09.971Z,2.00
2022-10-28T06:18:37.738Z,6.07
2022-10-28T06:21:07.262Z,1.97
2022-10-28T06:23:34.569Z,8.17
2022-10-28T06:26:03.803Z,4.43
2022-10-28T06:28:31.268Z,3.60
2022-10-28T06:31:02.596Z,4.83
2022-10-28T06:33:29.809Z,2.10
2022-10-28T06:35:56.849Z,3.03
2022-10-28T06:38:24.266Z,5.37
2022-10-28T06:40:52.501Z,3.00
2022-10-28T06:43:19.342Z,3.10
2022-10-28T06:45:46.809Z,2.33
2022-10-28T06:48:15.019Z,3.33
2022-10-28T06:50:41.620Z,3.47
2022-10-28T06:53:09.151Z,3.80
2022-10-28T06:55:35.732Z,3.43
2022-10-28T06:58:03.395Z,3.63
2022-10-28T07:03:03.488Z,6.00
2022-10-28T07:05:30.062Z,4.73
2022-10-28T07:07:56.944Z,3.63
2022-10-28T07:10:23.570Z,3.50
2022-10-28T07:12:52.780Z,3.80
2022-10-28T07:15:19.783Z,3.07
2022-10-28T07:17:52.801Z,4.57
2022-10-28T07:20:19.325Z,3.47
2022-10-28T07:22:45.885Z,5.03
2022-10-28T07:25:12.452Z,4.10
2022-10-28T07:27:39.080Z,8.70
2022-10-28T07:30:06.173Z,6.53
2022-10-28T07:32:33.483Z,6.20
2022-10-28T07:35:00.091Z,4.40
2022-10-28T07:37:27.011Z,13.40
2022-10-28T07:39:53.611Z,4.40
2022-10-28T07:42:20.120Z,6.60
2022-10-28T07:44:46.619Z,4.73
2022-10-28T07:47:13.152Z,8.77
2022-10-28T07:49:39.694Z,5.60
2022-10-28T07:52:06.156Z,8.50
2022-10-28T07:54:32.746Z,5.83
2022-10-28T07:56:59.300Z,3.77
2022-10-28T07:59:26.920Z,3.80
2022-10-28T08:01:54.446Z,6.60
2022-10-28T08:04:21.151Z,3.37
2022-10-28T08:06:47.746Z,2.77
2022-10-28T08:09:14.312Z,5.60
2022-10-28T08:11:40.908Z,5.13
2022-10-28T08:14:07.465Z,3.73
2022-10-28T08:16:34.024Z,5.30
2022-10-28T08:19:02.942Z,9.70
2022-10-28T08:21:33.318Z,7.80
2022-10-28T08:23:59.872Z,5.80
2022-10-28T08:26:26.502Z,7.57
2022-10-28T08:28:53.026Z,8.03
2022-10-28T08:31:19.544Z,5.37
2022-10-28T08:33:46.280Z,7.13
2022-10-28T08:36:15.085Z,6.53
2022-10-28T08:38:46.209Z,5.43
2022-10-28T08:41:20.673Z,2.60
2022-10-28T08:43:59.067Z,4.50
2022-10-28T08:46:44.646Z,5.33
2022-10-28T08:49:18.550Z,9.90
2022-10-28T08:52:03.037Z,3.27
2022-10-28T08:54:50.400Z,5.93
2022-10-28T08:57:21.504Z,10.43
2022-10-28T08:59:52.021Z,6.43
2022-10-28T09:02:22.440Z,2.87
2022-10-28T09:05:05.798Z,4.00
2022-10-28T09:07:36.000Z,4.43
2022-10-28T09:10:05.496Z,16.60
2022-10-28T09:12:49.331Z,4.67
2022-10-28T09:15:32.638Z,13.27
2022-10-28T09:18:25.671Z,3.50
2022-10-28T09:20:55.145Z,5.43
2022-10-28T09:23:32.240Z,10.10
2022-10-28T09:26:28.390Z,4.77
2022-10-28T09:29:21.531Z,6.43
2022-10-28T09:31:52.499Z,4.10
2022-10-28T09:34:33.883Z,3.70
2022-10-28T09:37:11.077Z,5.00
2022-10-28T09:39:43.700Z,7.30
2022-10-28T09:42:18.298Z,4.80
2022-10-28T09:44:53.344Z,2.73
2022-10-28T09:47:27.482Z,10.70
2022-10-28T09:49:58.068Z,4.40
2022-10-28T09:52:36.104Z,5.17
2022-10-28T09:55:15.841Z,4.80
2022-10-28T09:57:43.799Z,7.00
2022-10-28T10:00:13.056Z,2.63
2022-10-28T10:02:40.381Z,3.50
2022-10-28T10:05:18.265Z,5.50
2022-10-28T10:07:51.090Z,8.60
2022-10-28T10:10:27.739Z,4.87
2022-10-28T10:12:59.335Z,4.90
2022-10-28T10:15:31.287Z,4.07
2022-10-28T10:18:03.857Z,3.63
2022-10-28T10:20:47.403Z,5.97
2022-10-28T10:23:32.467Z,2.43
2022-10-28T10:26:12.298Z,3.47
2022-10-28T10:28:48.305Z,7.07
2022-10-28T10:31:25.558Z,4.10
2022-10-28T10:33:55.148Z,3.40
2022-10-28T10:36:28.195Z,8.93
2022-10-28T10:38:56.933Z,4.93
2022-10-28T10:41:41.887Z,4.77
2022-10-28T10:44:28.673Z,5.10
2022-10-28T10:46:55.099Z,6.87
2022-10-28T10:49:21.640Z,7.77
2022-10-28T10:51:59.355Z,5.00
2022-10-28T10:54:29.513Z,7.50
2022-10-28T10:57:08.609Z,2.27
2022-10-28T10:59:37.761Z,2.83
2022-10-28T11:02:17.086Z,3.73
2022-10-28T11:04:51.875Z,3.57
2022-10-28T11:07:18.422Z,6.80
2022-10-28T11:09:48.938Z,3.93
2022-10-28T11:12:31.866Z,6.83
2022-10-28T11:15:05.021Z,4.20
2022-10-28T11:17:33.872Z,4.90
2022-10-28T11:20:22.852Z,2.43
2022-10-28T11:23:03.147Z,3.30
2022-10-28T11:25:40.642Z,3.83
2022-10-28T11:28:13.056Z,7.37
2022-10-28T11:31:15.278Z,6.73
2022-10-28T11:34:00.445Z,8.97
2022-10-28T11:36:45.387Z,4.73
2022-10-28T11:39:20.322Z,3.93
2022-10-28T11:41:49.734Z,4.93
2022-10-28T11:44:41.597Z,12.73
2022-10-28T11:47:14.559Z,9.37
2022-10-28T11:50:02.378Z,3.20
2022-10-28T11:52:31.885Z,2.33
2022-10-28T11:55:29.508Z,3.73
2022-10-28T11:58:17.820Z,3.43
2022-10-28T12:00:55.304Z,2.10
2022-10-28T12:03:42.537Z,6.37
2022-10-28T12:06:24.140Z,3.07
2022-10-28T12:08:59.589Z,2.63
2022-10-28T12:14:38.818Z,1.90
2022-10-28T12:17:17.887Z,2.73
2022-10-28T12:20:02.690Z,6.43
2022-10-28T12:22:33.575Z,2.80
2022-10-28T12:25:07.272Z,5.80
2022-10-28T12:27:39.882Z,3.67
2022-10-28T12:30:16.248Z,2.97
2022-10-28T12:32:44.458Z,2.90
2022-10-28T12:35:34.456Z,1.60
2022-10-28T12:38:06.107Z,4.60
2022-10-28T12:40:44.643Z,4.13
2022-10-28T12:43:19.459Z,3.60
2022-10-28T12:45:50.039Z,6.33
2022-10-28T12:48:27.959Z,2.17
2022-10-28T12:51:05.595Z,5.23
2022-10-28T12:53:51.967Z,5.70
2022-10-28T12:56:36.074Z,2.37
2022-10-28T12:59:14.810Z,1.87
2022-10-28T13:01:45.717Z,4.00
2022-10-28T13:04:13.312Z,4.17
2022-10-28T13:07:06.063Z,2.40
2022-10-28T13:09:57.567Z,4.27
2022-10-28T13:12:47.072Z,2.70
2022-10-28T13:15:19.459Z,4.70
2022-10-28T13:18:03.235Z,3.93
2022-10-28T13:20:48.544Z,9.10
2022-10-28T13:23:19.807Z,3.63
2022-10-28T13:26:04.178Z,3.43
2022-10-28T13:28:34.951Z,2.20
2022-10-28T13:31:07.596Z,5.07
2022-10-28T13:33:37.294Z,3.40
2022-10-28T13:36:11.893Z,3.90
2022-10-28T13:38:38.680Z,2.80
2022-10-28T13:41:05.212Z,3.00
2022-10-28T13:43:50.203Z,4.90
2022-10-28T13:46:54.572Z,3.00
2022-10-28T13:49:27.105Z,5.13
2022-10-28T13:52:22.969Z,4.53
2022-10-28T13:54:49.656Z,4.53
2022-10-28T13:57:37.713Z,2.70
2022-10-28T14:03:00.567Z,4.30
2022-10-28T14:05:52.234Z,3.30
2022-10-28T14:08:29.506Z,3.67
2022-10-28T14:10:59.266Z,2.40
2022-10-28T14:13:26.584Z,5.70
2022-10-28T14:16:16.806Z,1.97
2022-10-28T14:18:53.619Z,2.60
2022-10-28T14:21:21.136Z,2.90
2022-10-28T14:24:08.040Z,2.57
2022-10-28T14:27:06.653Z,2.57
2022-10-28T14:29:50.542Z,2.50
2022-10-28T14:32:32.719Z,2.73
2022-10-28T14:35:05.621Z,2.67
2022-10-28T14:37:57.273Z,4.90
2022-10-28T14:40:38.135Z,4.40
2022-10-28T14:43:29.414Z,2.00
2022-10-28T14:46:10.220Z,1.40
2022-10-28T14:48:50.475Z,2.27
2022-10-28T14:51:24.137Z,3.80
2022-10-28T14:53:54.917Z,2.53
2022-10-28T14:56:29.757Z,6.47
2022-10-28T14:59:18.752Z,3.13
2022-10-28T15:02:04.151Z,2.53
2022-10-28T15:04:31.461Z,1.67
2022-10-28T15:06:58.819Z,1.60
2022-10-28T15:09:31.328Z,2.10
2022-10-28T15:12:02.005Z,3.37
2022-10-28T15:14:35.104Z,3.50
2022-10-28T15:17:12.366Z,3.00
2022-10-28T15:19:39.316Z,2.90
2022-10-28T15:22:15.086Z,3.73
2022-10-28T15:24:46.185Z,1.97
2022-10-28T15:27:14.207Z,3.27
2022-10-28T15:29:42.598Z,2.10
2022-10-28T15:32:30.526Z,2.37
2022-10-28T15:34:57.921Z,2.33
2022-10-28T15:37:28.559Z,2.37
2022-10-28T15:40:21.951Z,3.70
2022-10-28T15:42:57.464Z,4.03
2022-10-28T15:45:29.943Z,2.93
2022-10-28T15:47:58.367Z,7.40
2022-10-28T15:50:33.918Z,4.67
2022-10-28T15:53:09.516Z,3.63
2022-10-28T15:58:34.312Z,3.37
2022-10-28T16:01:01.123Z,3.13
2022-10-28T16:03:40.933Z,3.77
2022-10-28T16:06:27.887Z,2.53
2022-10-28T16:09:06.241Z,1.77
2022-10-28T16:11:36.397Z,3.83
2022-10-28T16:14:23.569Z,6.60
2022-10-28T16:16:50.256Z,3.80
2022-10-28T16:19:28.648Z,5.23
2022-10-28T16:21:55.692Z,5.13
2022-10-28T16:24:22.748Z,4.53
2022-10-28T16:26:49.239Z,8.20
2022-10-28T16:29:15.740Z,7.40
2022-10-28T16:31:42.482Z,7.63
2022-10-28T16:34:14.502Z,11.23
2022-10-28T16:36:40.968Z,8.60
2022-10-28T16:39:13.658Z,5.30
2022-10-28T16:41:40.933Z,5.80
2022-10-28T16:44:18.251Z,6.53
2022-10-28T16:46:44.784Z,6.83
2022-10-28T16:49:11.318Z,6.00
2022-10-28T16:51:38.251Z,6.90
2022-10-28T16:54:04.793Z,8.50
2022-10-28T16:56:31.432Z,7.70
2022-10-28T16:58:57.914Z,6.47
2022-10-28T17:01:24.547Z,5.20
2022-10-28T17:03:51.111Z,6.27
2022-10-28T17:06:17.651Z,9.80
2022-10-28T17:14:02.611Z,8.60
2022-10-28T17:16:29.118Z,6.23
2022-10-28T17:18:55.747Z,8.00
2022-10-28T17:21:22.270Z,5.87
2022-10-28T17:23:48.814Z,3.90
2022-10-28T17:26:15.493Z,7.57
2022-10-28T17:28:42.165Z,4.50
2022-10-28T17:31:09.269Z,3.30
2022-10-28T17:33:35.902Z,3.83
2022-10-28T17:36:05.186Z,3.77
2022-10-28T17:38:31.930Z,6.70
2022-10-28T17:40:58.424Z,5.90
2022-10-28T17:43:24.980Z,7.77
2022-10-28T17:45:51.788Z,5.27
2022-10-28T17:48:18.314Z,4.90
2022-10-28T17:50:45.146Z,10.30
2022-10-28T17:53:11.873Z,5.40
2022-10-28T17:55:38.535Z,6.27
2022-10-28T17:58:05.178Z,6.30
2022-10-28T18:00:31.741Z,3.80
2022-10-28T18:02:58.361Z,3.40
2022-10-28T18:05:24.972Z,5.13
2022-10-28T18:07:54.835Z,7.30
2022-10-28T18:10:21.726Z,8.13
2022-10-28T18:12:51.001Z,7.23
2022-10-28T18:15:17.506Z,11.70
2022-10-28T18:17:44.033Z,12.40
2022-10-28T18:20:11.008Z,13.13
2022-10-28T18:22:37.551Z,10.13
2022-10-28T18:25:04.369Z,15.87
2022-10-28T18:27:30.978Z,11.17
2022-10-28T18:29:57.478Z,13.50
2022-10-28T18:32:24.088Z,17.07
2022-10-28T18:34:50.710Z,10.70
2022-10-28T18:37:17.281Z,10.07
2022-10-28T18:39:43.896Z,13.20
2022-10-28T18:42:12.324Z,19.07
2022-10-28T18:44:39.321Z,16.27
2022-10-28T18:47:06.560Z,13.00
2022-10-28T18:49:33.241Z,11.20
2022-10-28T18:51:59.826Z,10.23
2022-10-28T18:54:26.448Z,12.60
2022-10-28T18:56:56.610Z,13.93
2022-10-28T18:59:24.241Z,20.23
2022-10-28T19:01:50.938Z,16.20
2022-10-28T19:04:17.699Z,12.40
2022-10-28T19:06:44.239Z,9.83
2022-10-28T19:09:10.834Z,13.17
2022-10-28T19:11:37.529Z,10.30
2022-10-28T19:14:06.117Z,12.47
2022-10-28T19:16:34.124Z,11.67
2022-10-28T19:19:02.730Z,8.40
2022-10-28T19:21:29.713Z,14.60
2022-10-28T19:23:56.608Z,17.07
2022-10-28T19:26:23.938Z,11.60
2022-10-28T19:28:51.484Z,16.20
2022-10-28T19:31:23.958Z,20.10
2022-10-28T19:33:52.550Z,12.70
2022-10-28T19:36:20.665Z,14.43
2022-10-28T19:38:49.450Z,14.90
2022-10-28T19:41:27.794Z,15.03
2022-10-28T19:43:58.211Z,12.90
2022-10-28T19:46:27.165Z,11.20
2022-10-28T19:48:55.463Z,9.27
2022-10-28T19:51:30.901Z,8.83
2022-10-28T19:53:59.948Z,9.67
2022-10-28T19:56:28.073Z,10.73
2022-10-28T19:58:57.240Z,11.13
2022-10-28T20:01:26.153Z,10.00
2022-10-28T20:03:54.101Z,16.10
2022-10-28T20:06:23.560Z,17.67
2022-10-28T20:08:50.408Z,14.80
2022-10-28T20:11:24.697Z,16.20
2022-10-28T20:13:54.783Z,8.97
2022-10-28T20:16:22.009Z,11.67
2022-10-28T20:18:48.582Z,9.43
2022-10-28T20:21:17.217Z,7.40
2022-10-28T20:23:46.205Z,5.57
2022-10-28T20:26:13.677Z,6.20
2022-10-28T20:28:40.642Z,4.93
2022-10-28T20:31:09.493Z,8.10
2022-10-28T20:33:38.016Z,6.57
2022-10-28T20:36:06.077Z,9.10
2022-10-28T20:38:32.665Z,11.30
2022-10-28T20:41:00.781Z,8.50
2022-10-28T20:43:29.279Z,8.03
2022-10-28T20:46:00.109Z,12.30
2022-10-28T20:48:30.882Z,10.87
2022-10-28T20:51:02.166Z,9.67
2022-10-28T20:53:37.581Z,9.33
2022-10-28T20:56:15.826Z,10.70
2022-10-28T20:58:42.463Z,12.00
2022-10-28T21:01:14.493Z,6.77
2022-10-28T21:03:42.247Z,7.13
2022-10-28T21:06:09.950Z,5.57
2022-10-28T21:08:36.752Z,11.30
2022-10-28T21:11:07.983Z,9.23
2022-10-28T21:13:35.171Z,6.40
2022-10-28T21:16:09.860Z,8.20
2022-10-28T21:18:38.256Z,7.30
2022-10-28T21:21:05.477Z,9.40
2022-10-28T21:23:32.142Z,6.00
2022-10-28T21:26:04.691Z,5.10
2022-10-28T21:28:32.560Z,5.87
2022-10-28T21:31:19.836Z,4.67
2022-10-28T21:33:46.827Z,4.50
2022-10-28T21:36:18.533Z,7.30
2022-10-28T21:38:45.358Z,5.10
2022-10-28T21:41:14.003Z,4.77
2022-10-28T21:43:42.555Z,8.20
2022-10-28T21:46:09.400Z,6.77
2022-10-28T21:48:37.314Z,5.20
2022-10-28T21:51:09.872Z,4.40
2022-10-28T21:53:42.578Z,7.87
2022-10-28T21:56:15.580Z,8.10
2022-10-28T21:58:44.268Z,9.53
2022-10-28T22:01:13.447Z,6.40
2022-10-28T22:03:40.933Z,8.00
2022-10-28T22:06:07.872Z,13.93
2022-10-28T22:08:34.803Z,6.47
2022-10-28T22:11:06.465Z,5.60
2022-10-28T22:13:33.913Z,4.50
2022-10-28T22:16:04.212Z,11.93
2022-10-28T22:18:33.375Z,4.87
2022-10-28T22:21:11.220Z,4.53
2022-10-28T22:23:38.323Z,4.43
2022-10-28T22:26:07.231Z,9.07
2022-10-28T22:28:34.585Z,3.93
2022-10-28T22:31:03.079Z,5.77
2022-10-28T22:33:29.702Z,4.30
2022-10-28T22:36:00.602Z,4.90
2022-10-28T22:38:27.601Z,5.70
2022-10-28T22:41:06.423Z,5.70
2022-10-28T22:43:33.858Z,6.90
2022-10-28T22:46:01.530Z,6.10
2022-10-28T22:48:28.627Z,5.30
2022-10-28T22:50:55.618Z,6.10
2022-10-28T22:53:22.859Z,6.30
2022-10-28T22:55:49.883Z,5.80
2022-10-28T22:58:16.855Z,4.20
2022-10-28T23:00:44.052Z,4.50
2022-10-28T23:03:11.423Z,8.33
2022-10-28T23:05:38.203Z,7.03
2022-10-28T23:08:04.889Z,6.80
2022-10-28T23:10:31.658Z,7.00
2022-10-28T23:12:59.761Z,5.10
2022-10-28T23:15:27.347Z,4.93
2022-10-28T23:17:54.190Z,4.20
2022-10-28T23:20:22.888Z,7.07
2022-10-28T23:22:49.591Z,5.10
2022-10-28T23:25:16.271Z,5.20
2022-10-28T23:27:43.994Z,4.07
2022-10-28T23:30:12.906Z,4.60
2022-10-28T23:32:40.315Z,5.40
2022-10-28T23:35:07.406Z,7.10
2022-10-28T23:37:34.063Z,8.63
2022-10-28T23:40:00.605Z,8.87
2022-10-28T23:42:27.120Z,4.00
2022-10-28T23:44:53.601Z,4.23
2022-10-28T23:47:20.228Z,6.10
2022-10-28T23:49:46.762Z,3.27
2022-10-28T23:52:13.366Z,3.10
2022-10-28T23:54:39.875Z,5.17
2022-10-28T23:57:06.373Z,4.60
2022-10-28T23:59:32.869Z,2.90
